EKVB weather

Viborg Airport
Viborg, Central Jutland, Denmark

Public forecast

Using degrees Celsius for public forecast. Weather courtesy of forecast.io.

METAR (pilot weather report)

Closest report is Karup Airport, 11.6 nm (21.5 km) SW. Retrieved 2019/05/19 21:20 UTC (32 minutes ago):

EKKA 192120Z AUTO 06005KT 9999 FEW160/// 14/13 Q1010

TAF (pilot weather forecast)

Closest forecast is Karup Airport, 11.6 nm (21.5 km) SW. Retrieved 2019/05/19 21:31 UTC (21 minutes ago):

TAF EKKA 192016Z 1921/2021 06005KT 9999 FEW020 TEMPO 1921/2006 3000 BR MIFG TEMPO 2010/2018 SCT040CB